sensor_id;sensor_type;location;lat;lon;timestamp;P1;durP1;ratioP1;P2;durP2;ratioP2
59310;SDS011;45078;51.654;21.250;2022-08-05T00:00:55;6.15;;;4.13;;
59310;SDS011;45078;51.654;21.250;2022-08-05T00:03:21;8.52;;;4.88;;
59310;SDS011;45078;51.654;21.250;2022-08-05T00:05:47;6.15;;;4.20;;
59310;SDS011;45078;51.654;21.250;2022-08-05T00:08:13;7.88;;;5.47;;
59310;SDS011;45078;51.654;21.250;2022-08-05T00:10:39;6.88;;;4.90;;
59310;SDS011;45078;51.654;21.250;2022-08-05T00:13:04;8.98;;;4.68;;
59310;SDS011;45078;51.654;21.250;2022-08-05T00:15:30;6.97;;;4.25;;
59310;SDS011;45078;51.654;21.250;2022-08-05T00:17:56;7.78;;;4.07;;
59310;SDS011;45078;51.654;21.250;2022-08-05T00:20:22;7.18;;;4.68;;
59310;SDS011;45078;51.654;21.250;2022-08-05T00:22:48;8.23;;;3.67;;
59310;SDS011;45078;51.654;21.250;2022-08-05T00:25:14;9.80;;;4.68;;
59310;SDS011;45078;51.654;21.250;2022-08-05T00:27:40;7.43;;;4.40;;
59310;SDS011;45078;51.654;21.250;2022-08-05T00:30:06;7.07;;;4.80;;
59310;SDS011;45078;51.654;21.250;2022-08-05T00:32:32;6.32;;;4.32;;
59310;SDS011;45078;51.654;21.250;2022-08-05T00:34:58;6.57;;;4.70;;
59310;SDS011;45078;51.654;21.250;2022-08-05T00:37:24;7.25;;;4.43;;
59310;SDS011;45078;51.654;21.250;2022-08-05T00:39:49;6.80;;;4.85;;
59310;SDS011;45078;51.654;21.250;2022-08-05T00:42:27;6.72;;;4.20;;
59310;SDS011;45078;51.654;21.250;2022-08-05T00:44:57;10.30;;;4.53;;
59310;SDS011;45078;51.654;21.250;2022-08-05T00:47:23;5.35;;;4.18;;
59310;SDS011;45078;51.654;21.250;2022-08-05T00:49:48;6.78;;;4.45;;
59310;SDS011;45078;51.654;21.250;2022-08-05T00:52:14;7.25;;;4.63;;
59310;SDS011;45078;51.654;21.250;2022-08-05T00:54:40;7.32;;;4.40;;
59310;SDS011;45078;51.654;21.250;2022-08-05T00:57:06;7.13;;;4.85;;
59310;SDS011;45078;51.654;21.250;2022-08-05T00:59:32;8.85;;;5.00;;
59310;SDS011;45078;51.654;21.250;2022-08-05T01:01:58;8.80;;;5.70;;
59310;SDS011;45078;51.654;21.250;2022-08-05T01:04:24;9.98;;;5.80;;
59310;SDS011;45078;51.654;21.250;2022-08-05T01:06:50;8.35;;;5.93;;
59310;SDS011;45078;51.654;21.250;2022-08-05T01:09:16;8.65;;;5.70;;
59310;SDS011;45078;51.654;21.250;2022-08-05T01:11:42;7.90;;;4.72;;
59310;SDS011;45078;51.654;21.250;2022-08-05T01:14:13;7.95;;;5.05;;
59310;SDS011;45078;51.654;21.250;2022-08-05T01:19:35;7.60;;;3.88;;
59310;SDS011;45078;51.654;21.250;2022-08-05T01:22:17;6.53;;;4.70;;
59310;SDS011;45078;51.654;21.250;2022-08-05T01:30:20;7.00;;;4.35;;
59310;SDS011;45078;51.654;21.250;2022-08-05T01:32:48;9.27;;;5.03;;
59310;SDS011;45078;51.654;21.250;2022-08-05T01:35:16;6.53;;;4.47;;
59310;SDS011;45078;51.654;21.250;2022-08-05T01:37:51;8.27;;;5.03;;
59310;SDS011;45078;51.654;21.250;2022-08-05T01:40:20;8.03;;;5.37;;
59310;SDS011;45078;51.654;21.250;2022-08-05T01:42:48;7.95;;;5.32;;
59310;SDS011;45078;51.654;21.250;2022-08-05T01:45:16;12.05;;;5.32;;
59310;SDS011;45078;51.654;21.250;2022-08-05T01:47:44;12.15;;;5.90;;
59310;SDS011;45078;51.654;21.250;2022-08-05T01:50:16;10.52;;;5.63;;
59310;SDS011;45078;51.654;21.250;2022-08-05T01:52:46;7.80;;;5.53;;
59310;SDS011;45078;51.654;21.250;2022-08-05T01:55:14;10.52;;;6.22;;
59310;SDS011;45078;51.654;21.250;2022-08-05T01:57:42;11.90;;;5.15;;
59310;SDS011;45078;51.654;21.250;2022-08-05T02:00:11;9.43;;;5.10;;
59310;SDS011;45078;51.654;21.250;2022-08-05T02:02:39;11.32;;;5.22;;
59310;SDS011;45078;51.654;21.250;2022-08-05T02:05:10;6.78;;;4.35;;
59310;SDS011;45078;51.654;21.250;2022-08-05T02:07:37;7.45;;;4.70;;
59310;SDS011;45078;51.654;21.250;2022-08-05T02:10:04;12.25;;;4.85;;
59310;SDS011;45078;51.654;21.250;2022-08-05T02:15:20;7.43;;;4.45;;
59310;SDS011;45078;51.654;21.250;2022-08-05T02:18:02;8.20;;;5.32;;
59310;SDS011;45078;51.654;21.250;2022-08-05T02:20:37;8.60;;;4.60;;
59310;SDS011;45078;51.654;21.250;2022-08-05T02:23:08;10.48;;;4.95;;
59310;SDS011;45078;51.654;21.250;2022-08-05T02:25:36;9.27;;;4.95;;
59310;SDS011;45078;51.654;21.250;2022-08-05T02:28:06;9.13;;;4.50;;
59310;SDS011;45078;51.654;21.250;2022-08-05T02:30:39;6.53;;;4.85;;
59310;SDS011;45078;51.654;21.250;2022-08-05T02:33:14;7.97;;;4.60;;
59310;SDS011;45078;51.654;21.250;2022-08-05T02:35:42;7.20;;;4.70;;
59310;SDS011;45078;51.654;21.250;2022-08-05T02:38:09;8.75;;;4.53;;
59310;SDS011;45078;51.654;21.250;2022-08-05T02:40:40;9.40;;;5.00;;
59310;SDS011;45078;51.654;21.250;2022-08-05T02:43:07;6.70;;;4.03;;
59310;SDS011;45078;51.654;21.250;2022-08-05T02:45:35;7.28;;;4.55;;
59310;SDS011;45078;51.654;21.250;2022-08-05T02:48:02;8.73;;;4.47;;
59310;SDS011;45078;51.654;21.250;2022-08-05T02:50:28;6.47;;;4.63;;
59310;SDS011;45078;51.654;21.250;2022-08-05T02:52:55;5.72;;;3.75;;
59310;SDS011;45078;51.654;21.250;2022-08-05T02:55:22;6.47;;;4.78;;
59310;SDS011;45078;51.654;21.250;2022-08-05T02:57:51;9.80;;;4.97;;
59310;SDS011;45078;51.654;21.250;2022-08-05T03:00:17;7.75;;;5.03;;
59310;SDS011;45078;51.654;21.250;2022-08-05T03:02:44;8.75;;;5.65;;
59310;SDS011;45078;51.654;21.250;2022-08-05T03:05:11;10.38;;;6.07;;
59310;SDS011;45078;51.654;21.250;2022-08-05T03:07:39;9.30;;;6.15;;
59310;SDS011;45078;51.654;21.250;2022-08-05T03:10:07;10.23;;;6.35;;
59310;SDS011;45078;51.654;21.250;2022-08-05T03:12:37;7.95;;;5.47;;
59310;SDS011;45078;51.654;21.250;2022-08-05T03:15:04;7.55;;;4.60;;
59310;SDS011;45078;51.654;21.250;2022-08-05T03:17:32;7.00;;;4.57;;
59310;SDS011;45078;51.654;21.250;2022-08-05T03:19:58;7.60;;;5.05;;
59310;SDS011;45078;51.654;21.250;2022-08-05T03:22:24;8.77;;;5.95;;
59310;SDS011;45078;51.654;21.250;2022-08-05T03:24:50;10.43;;;6.10;;
59310;SDS011;45078;51.654;21.250;2022-08-05T03:27:17;8.93;;;6.10;;
59310;SDS011;45078;51.654;21.250;2022-08-05T03:29:44;8.50;;;6.00;;
59310;SDS011;45078;51.654;21.250;2022-08-05T03:32:11;8.68;;;5.43;;
59310;SDS011;45078;51.654;21.250;2022-08-05T03:34:37;6.90;;;4.75;;
59310;SDS011;45078;51.654;21.250;2022-08-05T03:37:04;8.15;;;4.88;;
59310;SDS011;45078;51.654;21.250;2022-08-05T03:39:30;7.75;;;5.35;;
59310;SDS011;45078;51.654;21.250;2022-08-05T03:41:56;8.13;;;5.47;;
59310;SDS011;45078;51.654;21.250;2022-08-05T03:44:23;6.80;;;5.20;;
59310;SDS011;45078;51.654;21.250;2022-08-05T03:46:49;8.60;;;5.05;;
59310;SDS011;45078;51.654;21.250;2022-08-05T03:49:15;8.60;;;5.05;;
59310;SDS011;45078;51.654;21.250;2022-08-05T03:54:34;5.93;;;4.38;;
59310;SDS011;45078;51.654;21.250;2022-08-05T03:57:08;11.63;;;5.10;;
59310;SDS011;45078;51.654;21.250;2022-08-05T03:59:40;7.32;;;4.97;;
59310;SDS011;45078;51.654;21.250;2022-08-05T04:02:29;7.47;;;5.15;;
59310;SDS011;45078;51.654;21.250;2022-08-05T04:04:57;8.65;;;5.10;;
59310;SDS011;45078;51.654;21.250;2022-08-05T04:07:23;8.65;;;4.88;;
59310;SDS011;45078;51.654;21.250;2022-08-05T04:09:51;11.27;;;6.18;;
59310;SDS011;45078;51.654;21.250;2022-08-05T04:12:18;7.85;;;5.47;;
59310;SDS011;45078;51.654;21.250;2022-08-05T04:14:44;11.20;;;5.28;;
59310;SDS011;45078;51.654;21.250;2022-08-05T04:17:11;14.15;;;5.78;;
59310;SDS011;45078;51.654;21.250;2022-08-05T04:19:40;11.00;;;6.07;;
59310;SDS011;45078;51.654;21.250;2022-08-05T04:22:07;8.15;;;5.93;;
59310;SDS011;45078;51.654;21.250;2022-08-05T04:24:34;13.48;;;6.18;;
59310;SDS011;45078;51.654;21.250;2022-08-05T04:26:59;11.25;;;6.28;;
59310;SDS011;45078;51.654;21.250;2022-08-05T04:29:25;12.10;;;6.32;;
59310;SDS011;45078;51.654;21.250;2022-08-05T04:31:51;9.32;;;6.40;;
59310;SDS011;45078;51.654;21.250;2022-08-05T04:34:16;13.20;;;6.78;;
59310;SDS011;45078;51.654;21.250;2022-08-05T04:36:42;10.43;;;6.03;;
59310;SDS011;45078;51.654;21.250;2022-08-05T04:39:08;9.07;;;5.97;;
59310;SDS011;45078;51.654;21.250;2022-08-05T04:41:34;11.20;;;6.50;;
59310;SDS011;45078;51.654;21.250;2022-08-05T04:44:00;11.98;;;6.85;;
59310;SDS011;45078;51.654;21.250;2022-08-05T04:46:25;11.15;;;6.07;;
59310;SDS011;45078;51.654;21.250;2022-08-05T04:48:51;9.02;;;6.00;;
59310;SDS011;45078;51.654;21.250;2022-08-05T04:51:17;10.50;;;6.30;;
59310;SDS011;45078;51.654;21.250;2022-08-05T04:53:43;9.52;;;5.60;;
59310;SDS011;45078;51.654;21.250;2022-08-05T04:56:08;9.32;;;6.20;;
59310;SDS011;45078;51.654;21.250;2022-08-05T04:58:34;7.55;;;5.50;;
59310;SDS011;45078;51.654;21.250;2022-08-05T05:01:00;8.32;;;5.45;;
59310;SDS011;45078;51.654;21.250;2022-08-05T05:03:26;10.30;;;6.03;;
59310;SDS011;45078;51.654;21.250;2022-08-05T05:05:52;9.57;;;5.82;;
59310;SDS011;45078;51.654;21.250;2022-08-05T05:08:18;7.35;;;5.40;;
59310;SDS011;45078;51.654;21.250;2022-08-05T05:10:44;7.38;;;5.63;;
59310;SDS011;45078;51.654;21.250;2022-08-05T05:13:12;10.88;;;5.60;;
59310;SDS011;45078;51.654;21.250;2022-08-05T05:15:39;11.73;;;5.68;;
59310;SDS011;45078;51.654;21.250;2022-08-05T05:18:06;11.40;;;5.78;;
59310;SDS011;45078;51.654;21.250;2022-08-05T05:20:33;7.78;;;5.07;;
59310;SDS011;45078;51.654;21.250;2022-08-05T05:23:00;7.32;;;5.40;;
59310;SDS011;45078;51.654;21.250;2022-08-05T05:25:30;7.85;;;4.68;;
59310;SDS011;45078;51.654;21.250;2022-08-05T05:27:56;7.13;;;5.13;;
59310;SDS011;45078;51.654;21.250;2022-08-05T05:30:22;10.32;;;5.45;;
59310;SDS011;45078;51.654;21.250;2022-08-05T05:32:49;8.90;;;4.70;;
59310;SDS011;45078;51.654;21.250;2022-08-05T05:35:15;8.40;;;5.22;;
59310;SDS011;45078;51.654;21.250;2022-08-05T05:37:53;8.23;;;4.95;;
59310;SDS011;45078;51.654;21.250;2022-08-05T05:40:22;9.27;;;4.60;;
59310;SDS011;45078;51.654;21.250;2022-08-05T05:42:49;4.90;;;4.18;;
59310;SDS011;45078;51.654;21.250;2022-08-05T05:45:15;4.50;;;3.17;;
59310;SDS011;45078;51.654;21.250;2022-08-05T05:47:41;6.20;;;4.63;;
59310;SDS011;45078;51.654;21.250;2022-08-05T05:50:08;6.78;;;4.30;;
59310;SDS011;45078;51.654;21.250;2022-08-05T05:52:35;6.38;;;5.22;;
59310;SDS011;45078;51.654;21.250;2022-08-05T05:55:05;5.70;;;4.30;;
59310;SDS011;45078;51.654;21.250;2022-08-05T05:57:33;7.38;;;4.75;;
59310;SDS011;45078;51.654;21.250;2022-08-05T06:00:00;6.63;;;4.35;;
59310;SDS011;45078;51.654;21.250;2022-08-05T06:02:26;6.28;;;4.55;;
59310;SDS011;45078;51.654;21.250;2022-08-05T06:04:52;6.05;;;4.28;;
59310;SDS011;45078;51.654;21.250;2022-08-05T06:07:18;5.32;;;4.03;;
59310;SDS011;45078;51.654;21.250;2022-08-05T06:09:43;5.95;;;3.97;;
59310;SDS011;45078;51.654;21.250;2022-08-05T06:12:09;9.35;;;4.00;;
59310;SDS011;45078;51.654;21.250;2022-08-05T06:14:35;5.75;;;4.00;;
59310;SDS011;45078;51.654;21.250;2022-08-05T06:17:01;6.10;;;4.10;;
59310;SDS011;45078;51.654;21.250;2022-08-05T06:19:27;5.25;;;4.07;;
59310;SDS011;45078;51.654;21.250;2022-08-05T06:21:53;7.47;;;4.22;;
59310;SDS011;45078;51.654;21.250;2022-08-05T06:24:18;5.68;;;3.90;;
59310;SDS011;45078;51.654;21.250;2022-08-05T06:26:44;5.13;;;3.92;;
59310;SDS011;45078;51.654;21.250;2022-08-05T06:29:10;5.78;;;3.90;;
59310;SDS011;45078;51.654;21.250;2022-08-05T06:31:36;4.90;;;3.65;;
59310;SDS011;45078;51.654;21.250;2022-08-05T06:34:02;4.40;;;3.40;;
59310;SDS011;45078;51.654;21.250;2022-08-05T06:36:30;6.00;;;4.47;;
59310;SDS011;45078;51.654;21.250;2022-08-05T06:38:56;5.15;;;3.47;;
59310;SDS011;45078;51.654;21.250;2022-08-05T06:41:21;6.18;;;3.70;;
59310;SDS011;45078;51.654;21.250;2022-08-05T06:43:47;4.38;;;3.17;;
59310;SDS011;45078;51.654;21.250;2022-08-05T06:46:14;5.97;;;3.50;;
59310;SDS011;45078;51.654;21.250;2022-08-05T06:48:40;5.25;;;3.40;;
59310;SDS011;45078;51.654;21.250;2022-08-05T06:51:06;4.78;;;3.30;;
59310;SDS011;45078;51.654;21.250;2022-08-05T06:53:32;6.95;;;3.30;;
59310;SDS011;45078;51.654;21.250;2022-08-05T06:55:59;8.23;;;3.45;;
59310;SDS011;45078;51.654;21.250;2022-08-05T06:58:27;4.25;;;2.95;;
59310;SDS011;45078;51.654;21.250;2022-08-05T07:00:53;4.82;;;3.70;;
59310;SDS011;45078;51.654;21.250;2022-08-05T07:03:21;5.30;;;3.35;;
59310;SDS011;45078;51.654;21.250;2022-08-05T07:05:47;3.67;;;3.08;;
59310;SDS011;45078;51.654;21.250;2022-08-05T07:08:13;6.15;;;2.92;;
59310;SDS011;45078;51.654;21.250;2022-08-05T07:10:39;4.78;;;3.00;;
59310;SDS011;45078;51.654;21.250;2022-08-05T07:13:05;4.35;;;2.75;;
59310;SDS011;45078;51.654;21.250;2022-08-05T07:15:49;5.30;;;2.90;;
59310;SDS011;45078;51.654;21.250;2022-08-05T07:18:33;4.60;;;3.05;;
59310;SDS011;45078;51.654;21.250;2022-08-05T07:20:59;3.78;;;2.90;;
59310;SDS011;45078;51.654;21.250;2022-08-05T07:23:25;4.65;;;3.30;;
59310;SDS011;45078;51.654;21.250;2022-08-05T07:25:50;4.63;;;3.30;;
59310;SDS011;45078;51.654;21.250;2022-08-05T07:28:16;5.70;;;3.70;;
59310;SDS011;45078;51.654;21.250;2022-08-05T07:30:42;5.63;;;3.20;;
59310;SDS011;45078;51.654;21.250;2022-08-05T07:33:09;4.13;;;3.10;;
59310;SDS011;45078;51.654;21.250;2022-08-05T07:35:36;4.07;;;3.13;;
59310;SDS011;45078;51.654;21.250;2022-08-05T07:38:03;6.75;;;3.35;;
59310;SDS011;45078;51.654;21.250;2022-08-05T07:40:29;4.22;;;3.15;;
59310;SDS011;45078;51.654;21.250;2022-08-05T07:42:55;4.00;;;2.95;;
59310;SDS011;45078;51.654;21.250;2022-08-05T07:45:20;4.03;;;3.03;;
59310;SDS011;45078;51.654;21.250;2022-08-05T07:47:46;6.60;;;3.00;;
59310;SDS011;45078;51.654;21.250;2022-08-05T07:50:12;3.97;;;3.20;;
59310;SDS011;45078;51.654;21.250;2022-08-05T07:52:38;4.93;;;3.05;;
59310;SDS011;45078;51.654;21.250;2022-08-05T07:55:05;4.35;;;2.60;;
59310;SDS011;45078;51.654;21.250;2022-08-05T07:57:31;3.20;;;2.65;;
59310;SDS011;45078;51.654;21.250;2022-08-05T07:59:57;3.15;;;2.42;;
59310;SDS011;45078;51.654;21.250;2022-08-05T08:02:27;3.78;;;3.10;;
59310;SDS011;45078;51.654;21.250;2022-08-05T08:04:53;3.70;;;2.63;;
59310;SDS011;45078;51.654;21.250;2022-08-05T08:07:20;5.05;;;2.70;;
59310;SDS011;45078;51.654;21.250;2022-08-05T08:09:46;3.80;;;3.00;;
59310;SDS011;45078;51.654;21.250;2022-08-05T08:12:13;5.70;;;2.83;;
59310;SDS011;45078;51.654;21.250;2022-08-05T08:14:42;6.20;;;2.90;;
59310;SDS011;45078;51.654;21.250;2022-08-05T08:17:09;6.32;;;2.80;;
59310;SDS011;45078;51.654;21.250;2022-08-05T08:19:38;3.45;;;2.30;;
59310;SDS011;45078;51.654;21.250;2022-08-05T08:22:05;4.05;;;2.65;;
59310;SDS011;45078;51.654;21.250;2022-08-05T08:24:32;4.80;;;2.60;;
59310;SDS011;45078;51.654;21.250;2022-08-05T08:26:58;3.40;;;2.60;;
59310;SDS011;45078;51.654;21.250;2022-08-05T08:29:24;3.92;;;2.60;;
59310;SDS011;45078;51.654;21.250;2022-08-05T08:31:50;3.40;;;2.60;;
59310;SDS011;45078;51.654;21.250;2022-08-05T08:34:17;3.45;;;2.60;;
59310;SDS011;45078;51.654;21.250;2022-08-05T08:36:44;3.55;;;2.38;;
59310;SDS011;45078;51.654;21.250;2022-08-05T08:39:10;4.60;;;2.72;;
59310;SDS011;45078;51.654;21.250;2022-08-05T08:41:35;6.40;;;2.60;;
59310;SDS011;45078;51.654;21.250;2022-08-05T08:44:05;3.70;;;2.45;;
59310;SDS011;45078;51.654;21.250;2022-08-05T08:46:32;3.75;;;2.60;;
59310;SDS011;45078;51.654;21.250;2022-08-05T08:48:58;4.30;;;2.40;;
59310;SDS011;45078;51.654;21.250;2022-08-05T08:51:27;3.70;;;2.30;;
59310;SDS011;45078;51.654;21.250;2022-08-05T08:53:57;3.15;;;2.50;;
59310;SDS011;45078;51.654;21.250;2022-08-05T08:56:23;2.67;;;1.85;;
59310;SDS011;45078;51.654;21.250;2022-08-05T08:58:49;2.95;;;2.28;;
59310;SDS011;45078;51.654;21.250;2022-08-05T09:01:16;3.05;;;2.20;;
59310;SDS011;45078;51.654;21.250;2022-08-05T09:03:47;3.60;;;2.55;;
59310;SDS011;45078;51.654;21.250;2022-08-05T09:06:14;3.03;;;2.33;;
59310;SDS011;45078;51.654;21.250;2022-08-05T09:08:40;4.50;;;2.30;;
59310;SDS011;45078;51.654;21.250;2022-08-05T09:11:06;3.22;;;2.47;;
59310;SDS011;45078;51.654;21.250;2022-08-05T09:13:33;3.15;;;2.17;;
59310;SDS011;45078;51.654;21.250;2022-08-05T09:16:00;2.90;;;2.00;;
59310;SDS011;45078;51.654;21.250;2022-08-05T09:18:26;4.88;;;2.10;;
59310;SDS011;45078;51.654;21.250;2022-08-05T09:20:52;2.97;;;2.25;;
59310;SDS011;45078;51.654;21.250;2022-08-05T09:23:19;3.42;;;2.40;;
59310;SDS011;45078;51.654;21.250;2022-08-05T09:25:46;5.53;;;2.60;;
59310;SDS011;45078;51.654;21.250;2022-08-05T09:30:43;3.20;;;2.47;;
59310;SDS011;45078;51.654;21.250;2022-08-05T09:33:17;3.72;;;2.22;;
59310;SDS011;45078;51.654;21.250;2022-08-05T09:38:38;10.48;;;2.55;;
59310;SDS011;45078;51.654;21.250;2022-08-05T09:41:23;6.65;;;2.38;;
59310;SDS011;45078;51.654;21.250;2022-08-05T09:43:49;7.32;;;2.60;;
59310;SDS011;45078;51.654;21.250;2022-08-05T09:46:25;3.05;;;2.03;;
59310;SDS011;45078;51.654;21.250;2022-08-05T09:48:56;4.95;;;2.35;;
59310;SDS011;45078;51.654;21.250;2022-08-05T09:51:33;4.88;;;2.40;;
59310;SDS011;45078;51.654;21.250;2022-08-05T09:54:03;3.40;;;2.40;;
59310;SDS011;45078;51.654;21.250;2022-08-05T09:56:33;5.30;;;2.67;;
59310;SDS011;45078;51.654;21.250;2022-08-05T10:01:30;2.90;;;2.08;;
59310;SDS011;45078;51.654;21.250;2022-08-05T10:04:02;3.30;;;2.30;;
59310;SDS011;45078;51.654;21.250;2022-08-05T10:06:33;4.47;;;2.20;;
59310;SDS011;45078;51.654;21.250;2022-08-05T10:11:45;3.10;;;2.50;;
59310;SDS011;45078;51.654;21.250;2022-08-05T10:16:57;4.25;;;1.90;;
59310;SDS011;45078;51.654;21.250;2022-08-05T10:19:37;3.03;;;2.03;;
59310;SDS011;45078;51.654;21.250;2022-08-05T10:22:03;2.85;;;2.00;;
59310;SDS011;45078;51.654;21.250;2022-08-05T10:24:29;3.22;;;2.10;;
59310;SDS011;45078;51.654;21.250;2022-08-05T10:26:56;3.92;;;2.50;;
59310;SDS011;45078;51.654;21.250;2022-08-05T10:29:24;3.63;;;2.20;;
59310;SDS011;45078;51.654;21.250;2022-08-05T10:31:50;2.90;;;2.05;;
59310;SDS011;45078;51.654;21.250;2022-08-05T10:34:17;4.05;;;2.42;;
59310;SDS011;45078;51.654;21.250;2022-08-05T10:36:43;3.08;;;2.40;;
59310;SDS011;45078;51.654;21.250;2022-08-05T10:39:32;3.30;;;2.45;;
59310;SDS011;45078;51.654;21.250;2022-08-05T10:44:46;3.10;;;2.53;;
59310;SDS011;45078;51.654;21.250;2022-08-05T10:47:13;2.83;;;2.10;;
59310;SDS011;45078;51.654;21.250;2022-08-05T10:52:38;3.00;;;2.00;;
59310;SDS011;45078;51.654;21.250;2022-08-05T10:55:06;4.13;;;2.75;;
59310;SDS011;45078;51.654;21.250;2022-08-05T10:57:34;4.03;;;2.35;;
59310;SDS011;45078;51.654;21.250;2022-08-05T11:00:09;3.80;;;2.30;;
59310;SDS011;45078;51.654;21.250;2022-08-05T11:02:36;3.67;;;2.58;;
59310;SDS011;45078;51.654;21.250;2022-08-05T11:05:04;3.90;;;2.30;;
59310;SDS011;45078;51.654;21.250;2022-08-05T11:10:25;4.35;;;2.90;;
59310;SDS011;45078;51.654;21.250;2022-08-05T11:12:51;3.80;;;2.10;;
59310;SDS011;45078;51.654;21.250;2022-08-05T11:15:19;3.33;;;2.55;;
59310;SDS011;45078;51.654;21.250;2022-08-05T11:20:54;3.83;;;2.17;;
59310;SDS011;45078;51.654;21.250;2022-08-05T11:24:05;4.95;;;2.55;;
59310;SDS011;45078;51.654;21.250;2022-08-05T11:28:52;4.30;;;2.50;;
59310;SDS011;45078;51.654;21.250;2022-08-05T11:31:19;7.32;;;2.45;;
59310;SDS011;45078;51.654;21.250;2022-08-05T11:36:13;3.20;;;2.63;;
59310;SDS011;45078;51.654;21.250;2022-08-05T11:46:29;3.10;;;2.22;;
59310;SDS011;45078;51.654;21.250;2022-08-05T11:49:16;3.08;;;2.33;;
59310;SDS011;45078;51.654;21.250;2022-08-05T11:51:44;3.28;;;2.42;;
59310;SDS011;45078;51.654;21.250;2022-08-05T11:54:33;3.80;;;2.50;;
59310;SDS011;45078;51.654;21.250;2022-08-05T11:56:58;3.70;;;2.40;;
59310;SDS011;45078;51.654;21.250;2022-08-05T11:59:26;3.10;;;2.50;;
59310;SDS011;45078;51.654;21.250;2022-08-05T12:01:54;2.92;;;2.33;;
59310;SDS011;45078;51.654;21.250;2022-08-05T12:04:20;3.83;;;2.50;;
59310;SDS011;45078;51.654;21.250;2022-08-05T12:06:46;3.65;;;2.50;;
59310;SDS011;45078;51.654;21.250;2022-08-05T12:09:14;4.07;;;2.70;;
59310;SDS011;45078;51.654;21.250;2022-08-05T12:11:44;4.47;;;2.65;;
59310;SDS011;45078;51.654;21.250;2022-08-05T12:14:11;3.08;;;2.40;;
59310;SDS011;45078;51.654;21.250;2022-08-05T12:16:37;4.75;;;2.60;;
59310;SDS011;45078;51.654;21.250;2022-08-05T12:19:05;3.78;;;2.58;;
59310;SDS011;45078;51.654;21.250;2022-08-05T12:21:33;3.22;;;2.50;;
59310;SDS011;45078;51.654;21.250;2022-08-05T12:24:07;4.00;;;2.60;;
59310;SDS011;45078;51.654;21.250;2022-08-05T12:29:12;4.60;;;2.65;;
59310;SDS011;45078;51.654;21.250;2022-08-05T12:31:43;3.70;;;2.90;;
59310;SDS011;45078;51.654;21.250;2022-08-05T12:34:17;4.85;;;2.70;;
59310;SDS011;45078;51.654;21.250;2022-08-05T12:36:44;3.65;;;2.83;;
59310;SDS011;45078;51.654;21.250;2022-08-05T12:39:12;3.85;;;2.38;;
59310;SDS011;45078;51.654;21.250;2022-08-05T12:41:38;3.65;;;2.58;;
59310;SDS011;45078;51.654;21.250;2022-08-05T12:44:06;6.20;;;2.60;;
59310;SDS011;45078;51.654;21.250;2022-08-05T12:46:34;3.45;;;2.80;;
59310;SDS011;45078;51.654;21.250;2022-08-05T12:54:27;5.28;;;2.80;;
59310;SDS011;45078;51.654;21.250;2022-08-05T12:57:01;5.38;;;2.95;;
59310;SDS011;45078;51.654;21.250;2022-08-05T13:01:56;3.78;;;2.38;;
59310;SDS011;45078;51.654;21.250;2022-08-05T13:04:30;5.65;;;2.25;;
59310;SDS011;45078;51.654;21.250;2022-08-05T13:07:02;3.45;;;2.83;;
59310;SDS011;45078;51.654;21.250;2022-08-05T13:09:30;3.97;;;2.47;;
59310;SDS011;45078;51.654;21.250;2022-08-05T13:12:05;3.53;;;2.65;;
59310;SDS011;45078;51.654;21.250;2022-08-05T13:14:37;3.70;;;2.65;;
59310;SDS011;45078;51.654;21.250;2022-08-05T13:17:08;6.73;;;3.00;;
59310;SDS011;45078;51.654;21.250;2022-08-05T13:19:40;4.18;;;2.88;;
59310;SDS011;45078;51.654;21.250;2022-08-05T13:22:21;4.72;;;2.60;;
59310;SDS011;45078;51.654;21.250;2022-08-05T13:24:47;4.00;;;2.95;;
59310;SDS011;45078;51.654;21.250;2022-08-05T13:27:22;5.45;;;2.88;;
59310;SDS011;45078;51.654;21.250;2022-08-05T13:30:09;4.20;;;2.80;;
59310;SDS011;45078;51.654;21.250;2022-08-05T13:32:36;4.50;;;3.25;;
59310;SDS011;45078;51.654;21.250;2022-08-05T13:35:03;3.10;;;2.40;;
59310;SDS011;45078;51.654;21.250;2022-08-05T13:37:30;3.33;;;2.67;;
59310;SDS011;45078;51.654;21.250;2022-08-05T13:39:56;6.22;;;2.83;;
59310;SDS011;45078;51.654;21.250;2022-08-05T13:42:22;3.08;;;2.42;;
59310;SDS011;45078;51.654;21.250;2022-08-05T13:44:52;3.97;;;2.55;;
59310;SDS011;45078;51.654;21.250;2022-08-05T13:47:19;5.18;;;2.70;;
59310;SDS011;45078;51.654;21.250;2022-08-05T13:49:45;5.10;;;2.50;;
59310;SDS011;45078;51.654;21.250;2022-08-05T13:52:12;3.60;;;2.72;;
59310;SDS011;45078;51.654;21.250;2022-08-05T13:54:42;4.35;;;2.88;;
59310;SDS011;45078;51.654;21.250;2022-08-05T13:57:09;7.07;;;3.00;;
59310;SDS011;45078;51.654;21.250;2022-08-05T13:59:36;3.92;;;2.67;;
59310;SDS011;45078;51.654;21.250;2022-08-05T14:02:03;5.22;;;2.47;;
59310;SDS011;45078;51.654;21.250;2022-08-05T14:04:30;4.90;;;2.67;;
59310;SDS011;45078;51.654;21.250;2022-08-05T14:07:17;3.20;;;2.35;;
59310;SDS011;45078;51.654;21.250;2022-08-05T14:09:44;3.72;;;2.70;;
59310;SDS011;45078;51.654;21.250;2022-08-05T14:12:10;4.88;;;2.90;;
59310;SDS011;45078;51.654;21.250;2022-08-05T14:14:36;3.40;;;2.60;;
59310;SDS011;45078;51.654;21.250;2022-08-05T14:17:02;4.18;;;2.78;;
59310;SDS011;45078;51.654;21.250;2022-08-05T14:19:29;7.25;;;2.50;;
59310;SDS011;45078;51.654;21.250;2022-08-05T14:21:54;3.92;;;2.72;;
59310;SDS011;45078;51.654;21.250;2022-08-05T14:24:20;5.20;;;2.85;;
59310;SDS011;45078;51.654;21.250;2022-08-05T14:26:46;5.40;;;2.75;;
59310;SDS011;45078;51.654;21.250;2022-08-05T14:29:11;4.65;;;2.78;;
59310;SDS011;45078;51.654;21.250;2022-08-05T14:31:38;3.22;;;2.25;;
59310;SDS011;45078;51.654;21.250;2022-08-05T14:34:03;5.13;;;2.72;;
59310;SDS011;45078;51.654;21.250;2022-08-05T14:36:29;5.47;;;2.75;;
59310;SDS011;45078;51.654;21.250;2022-08-05T14:38:55;3.58;;;2.58;;
59310;SDS011;45078;51.654;21.250;2022-08-05T14:41:21;3.33;;;2.50;;
59310;SDS011;45078;51.654;21.250;2022-08-05T14:43:47;4.32;;;2.83;;
59310;SDS011;45078;51.654;21.250;2022-08-05T14:46:15;4.47;;;2.83;;
59310;SDS011;45078;51.654;21.250;2022-08-05T14:48:41;4.03;;;2.63;;
59310;SDS011;45078;51.654;21.250;2022-08-05T14:51:07;6.85;;;3.17;;
59310;SDS011;45078;51.654;21.250;2022-08-05T14:53:33;3.72;;;2.38;;
59310;SDS011;45078;51.654;21.250;2022-08-05T14:55:59;4.03;;;2.70;;
59310;SDS011;45078;51.654;21.250;2022-08-05T14:58:25;7.35;;;3.10;;
59310;SDS011;45078;51.654;21.250;2022-08-05T15:00:50;4.22;;;2.80;;
59310;SDS011;45078;51.654;21.250;2022-08-05T15:03:16;3.95;;;2.47;;
59310;SDS011;45078;51.654;21.250;2022-08-05T15:05:42;8.38;;;2.92;;
59310;SDS011;45078;51.654;21.250;2022-08-05T15:08:07;4.10;;;2.80;;
59310;SDS011;45078;51.654;21.250;2022-08-05T15:10:33;3.88;;;2.92;;
59310;SDS011;45078;51.654;21.250;2022-08-05T15:12:59;4.93;;;3.63;;
59310;SDS011;45078;51.654;21.250;2022-08-05T15:15:26;6.10;;;2.90;;
59310;SDS011;45078;51.654;21.250;2022-08-05T15:17:52;3.83;;;2.95;;
59310;SDS011;45078;51.654;21.250;2022-08-05T15:20:18;3.72;;;2.50;;
59310;SDS011;45078;51.654;21.250;2022-08-05T15:22:44;5.53;;;2.72;;
59310;SDS011;45078;51.654;21.250;2022-08-05T15:25:10;4.57;;;2.90;;
59310;SDS011;45078;51.654;21.250;2022-08-05T15:27:36;3.60;;;2.70;;
59310;SDS011;45078;51.654;21.250;2022-08-05T15:30:02;3.60;;;2.75;;
59310;SDS011;45078;51.654;21.250;2022-08-05T15:32:28;4.00;;;2.78;;
59310;SDS011;45078;51.654;21.250;2022-08-05T15:34:55;5.35;;;2.92;;
59310;SDS011;45078;51.654;21.250;2022-08-05T15:37:21;5.70;;;2.72;;
59310;SDS011;45078;51.654;21.250;2022-08-05T15:39:47;5.15;;;2.80;;